Overview Statistics Trail Chart Weather Telemetry Raw packets
 

This is the latest recevied weather packets stored in our database for station/object KF7SOJ. If no packets are shown the sender has not sent any weather packets the latest 10 day(s).

<< 34 35 36 37 38 39 40 >>
Time Temp. Humidity Pressure Rain* Wind** Luminosity Snow
1788381118 30.56° C 25% 923.6 hPa 0 mm - 370 W/m² -
1788380813 30° C 25% 923.7 hPa 0 mm - 311 W/m² -
1788380509 31.67° C 23% 923.6 hPa 0 mm - 664 W/m² -
1788380206 31.11° C 25% 923.7 hPa 0 mm - 729 W/m² -
1788379904 30.56° C 27% 923.8 hPa 0 mm - 898 W/m² -
1788379599 30° C 27% 924 hPa 0 mm - 325 W/m² -
1788379295 28.89° C 29% 924.2 hPa 0 mm - 343 W/m² -
1788378991 29.44° C 28% 924 hPa 0 mm - 216 W/m² -
1788378690 30° C 27% 924.2 hPa 0 mm - 240 W/m² -
1788378389 30° C 29% 924.1 hPa 0 mm - 901 W/m² -
1788378084 28.33° C 31% 924.3 hPa 0 mm - 987 W/m² -
1788377780 28.33° C 31% 924.2 hPa 0 mm - 987 W/m² -
1788377481 28.33° C 31% 924.3 hPa 0 mm - 987 W/m² -
1788377179 28.33° C 30% 924.4 hPa 0 mm - 931 W/m² -
1788376878 27.22° C 34% 924.7 hPa 0 mm - 894 W/m² -
1788376574 27.22° C 34% 924.6 hPa 0 mm - 894 W/m² -
1788376273 27.22° C 34% 924.6 hPa 0 mm - 894 W/m² -
1788375969 27.22° C 34% 924.6 hPa 0 mm - 894 W/m² -
1788375664 27.22° C 34% 924.7 hPa 0 mm - 894 W/m² -
1788375360 27.22° C 34% 924.9 hPa 0 mm - 864 W/m² -
1788375055 27.22° C 33% 925 hPa 0 mm - 895 W/m² -
1788374750 26.67° C 33% 925.1 hPa 0 mm - 959 W/m² -
1788374445 26.11° C 35% 925.3 hPa 0 mm - 469 W/m² -
1788374142 25.56° C 36% 925.3 hPa 0 mm - 592 W/m² -
1788373838 26.67° C 34% 925.4 hPa 0 mm - 541 W/m² -

* Rain latest hour (hover to see other rain measurements)
** Current wind speed in m/s (hover to see current wind gust speed)